createdAt,value
2023-04-25T00:01:25.157Z,98607.53
2023-04-25T00:03:53.315Z,98612.97
2023-04-25T00:06:21.261Z,98603.12
2023-04-25T00:08:49.027Z,98598.78
2023-04-25T00:11:16.730Z,98598.78
2023-04-25T00:13:44.234Z,98593.31
2023-04-25T00:16:12.482Z,98593.31
2023-04-25T00:18:40.724Z,98589.78
2023-04-25T00:21:08.362Z,98584.59
2023-04-25T00:23:37.342Z,98594.41
2023-04-25T00:26:05.005Z,98592.78
2023-04-25T00:28:32.483Z,98590.87
2023-04-25T00:30:59.947Z,98589.22
2023-04-25T00:33:27.608Z,98582.97
2023-04-25T00:35:55.280Z,98569.59
2023-04-25T00:38:22.795Z,98578.34
2023-04-25T00:40:50.884Z,98577.53
2023-04-25T00:43:18.303Z,98576.44
2023-04-25T00:45:45.774Z,98577.53
2023-04-25T00:48:14.813Z,98572.09
2023-04-25T00:50:42.196Z,98579.16
2023-04-25T00:53:11.034Z,98572.91
2023-04-25T00:55:38.780Z,98573.72
2023-04-25T00:58:06.224Z,98563.66
2023-04-25T01:00:33.662Z,98561.19
2023-04-25T01:03:01.727Z,98554.91
2023-04-25T01:05:29.260Z,98557.62
2023-04-25T01:07:56.697Z,98553.28
2023-04-25T01:10:24.462Z,98549.47
2023-04-25T01:12:51.947Z,98556.81
2023-04-25T01:15:19.387Z,98557.62
2023-04-25T01:17:47.580Z,98561.44
2023-04-25T01:20:15.107Z,98561.44
2023-04-25T01:22:43.881Z,98561.44
2023-04-25T01:25:12.185Z,98548.66
2023-04-25T01:27:40.021Z,98566.88
2023-04-25T01:30:08.234Z,98563.34
2023-04-25T01:32:39.554Z,98556.81
2023-04-25T01:35:10.721Z,98559.53
2023-04-25T01:37:41.821Z,98555.75
2023-04-25T01:40:10.838Z,98552.44
2023-04-25T01:42:40.595Z,98550.56
2023-04-25T01:45:08.801Z,98567.69
2023-04-25T01:47:36.327Z,98556.81
2023-04-25T01:50:05.351Z,98551.38
2023-04-25T01:52:34.213Z,98547.00
2023-04-25T01:55:05.266Z,98557.91
2023-04-25T01:57:33.735Z,98555.44
2023-04-25T02:00:03.877Z,98563.59
2023-04-25T02:02:39.717Z,98558.16
2023-04-25T02:05:08.496Z,98558.97
2023-04-25T02:07:36.303Z,98560.06
2023-04-25T02:10:03.783Z,98564.41
2023-04-25T02:12:32.880Z,98569.03
2023-04-25T02:15:00.600Z,98570.69
2023-04-25T02:17:28.152Z,98571.75
2023-04-25T02:19:55.824Z,98556.25
2023-04-25T02:22:24.765Z,98551.91
2023-04-25T02:24:52.178Z,98569.03
2023-04-25T02:27:19.875Z,98570.13
2023-04-25T02:29:47.566Z,98560.06
2023-04-25T02:32:15.004Z,98557.06
2023-04-25T02:34:42.413Z,98556.25
2023-04-25T02:37:10.131Z,98551.91
2023-04-25T02:39:37.554Z,98551.06
2023-04-25T02:42:04.962Z,98561.97
2023-04-25T02:44:32.671Z,98552.97
2023-04-25T02:47:00.208Z,98552.97
2023-04-25T02:49:27.683Z,98565.50
2023-04-25T02:51:55.352Z,98558.44
2023-04-25T02:54:22.798Z,98552.97
2023-04-25T02:56:50.290Z,98556.75
2023-04-25T02:59:18.607Z,98553.81
2023-04-25T03:01:46.348Z,98558.44
2023-04-25T03:04:13.880Z,98554.84
2023-04-25T03:06:41.517Z,98556.75
2023-04-25T03:09:08.931Z,98555.13
2023-04-25T03:11:36.364Z,98555.94
2023-04-25T03:14:04.276Z,98551.31
2023-04-25T03:16:32.095Z,98551.31
2023-04-25T03:18:59.519Z,98554.84
2023-04-25T03:21:27.578Z,98543.97
2023-04-25T03:23:55.065Z,98547.78
2023-04-25T03:26:22.647Z,98557.03
2023-04-25T03:28:50.310Z,98555.13
2023-04-25T03:31:17.855Z,98553.47
2023-04-25T03:33:45.348Z,98559.75
2023-04-25T03:36:13.054Z,98559.75
2023-04-25T03:38:42.301Z,98560.81
2023-04-25T03:41:10.321Z,98569.53
2023-04-25T03:43:38.134Z,98552.41
2023-04-25T03:46:06.101Z,98562.72
2023-04-25T03:48:33.567Z,98561.06
2023-04-25T03:51:01.404Z,98564.88
2023-04-25T03:53:29.487Z,98561.31
2023-04-25T03:55:59.360Z,98564.88
2023-04-25T03:58:27.024Z,98566.31
2023-04-25T04:00:54.713Z,98568.41
2023-04-25T04:03:22.558Z,98568.94
2023-04-25T04:05:50.871Z,98569.97
2023-04-25T04:08:18.593Z,98567.03
2023-04-25T04:10:46.500Z,98572.19
2023-04-25T04:13:14.483Z,98559.69
2023-04-25T04:15:41.909Z,98573.03
2023-04-25T04:18:09.733Z,98571.13
2023-04-25T04:20:37.212Z,98581.19
2023-04-25T04:23:04.803Z,98575.75
2023-04-25T04:25:32.550Z,98574.94
2023-04-25T04:28:01.966Z,98579.28
2023-04-25T04:30:32.462Z,98583.09
2023-04-25T04:33:01.902Z,98578.47
2023-04-25T04:35:29.781Z,98581.19
2023-04-25T04:37:57.230Z,98580.09
2023-04-25T04:40:26.576Z,98581.44
2023-04-25T04:42:57.440Z,98583.91
2023-04-25T04:45:26.400Z,98583.91
2023-04-25T04:47:56.319Z,98588.53
2023-04-25T04:50:24.518Z,98588.53
2023-04-25T04:52:52.998Z,98589.72
2023-04-25T04:55:21.044Z,98582.00
2023-04-25T04:57:49.898Z,98581.72
2023-04-25T05:00:17.932Z,98591.50
2023-04-25T05:02:46.428Z,98596.38
2023-04-25T05:05:14.061Z,98595.56
2023-04-25T05:07:42.945Z,98594.72
2023-04-25T05:10:11.312Z,98597.19
2023-04-25T05:12:39.009Z,98600.75
2023-04-25T05:15:07.738Z,98581.72
2023-04-25T05:17:35.594Z,98585.25
2023-04-25T05:20:03.800Z,98591.50
2023-04-25T05:22:32.053Z,98588.78
2023-04-25T05:25:00.245Z,98588.78
2023-04-25T05:27:28.209Z,98587.97
2023-04-25T05:29:57.728Z,98590.69
2023-04-25T05:32:26.205Z,98589.63
2023-04-25T05:34:54.297Z,98597.78
2023-04-25T05:37:22.162Z,98595.06
2023-04-25T05:39:51.110Z,98595.31
2023-04-25T05:42:18.985Z,98596.38
2023-04-25T05:44:47.379Z,98592.00
2023-04-25T05:47:14.917Z,98590.09
2023-04-25T05:49:42.763Z,98586.00
2023-04-25T05:52:10.716Z,98594.19
2023-04-25T05:54:38.638Z,98602.34
2023-04-25T05:57:06.086Z,98590.03
2023-04-25T05:59:34.257Z,98593.59
2023-04-25T06:02:02.000Z,98595.22
2023-04-25T06:04:30.144Z,98591.69
2023-04-25T06:06:57.848Z,98589.78
2023-04-25T06:09:25.290Z,98595.22
2023-04-25T06:11:54.575Z,98593.59
2023-04-25T06:14:21.978Z,98595.22
2023-04-25T06:16:49.614Z,98588.16
2023-04-25T06:19:17.295Z,98600.94
2023-04-25T06:21:44.912Z,98593.84
2023-04-25T06:24:12.724Z,98591.13
2023-04-25T06:26:40.617Z,98596.56
2023-04-25T06:29:08.388Z,98598.47
2023-04-25T06:31:36.374Z,98602.84
2023-04-25T06:34:04.183Z,98592.22
2023-04-25T06:36:33.541Z,98588.69
2023-04-25T06:39:01.612Z,98591.13
2023-04-25T06:41:29.395Z,98600.13
2023-04-25T06:43:59.668Z,98593.59
2023-04-25T06:46:28.493Z,98599.03
2023-04-25T06:48:58.105Z,98594.41
2023-04-25T06:51:25.657Z,98591.47
2023-04-25T06:53:53.405Z,98598.53
2023-04-25T06:56:24.299Z,98592.00
2023-04-25T06:58:52.595Z,98591.75
2023-04-25T07:01:21.086Z,98609.75
2023-04-25T07:03:48.858Z,98598.03
2023-04-25T07:06:16.736Z,98598.84
2023-04-25T07:08:44.386Z,98608.41
2023-04-25T07:11:11.792Z,98602.94
2023-04-25T07:13:39.195Z,98603.53
2023-04-25T07:16:07.063Z,98606.00
2023-04-25T07:18:34.768Z,98608.72
2023-04-25T07:21:02.397Z,98605.72
2023-04-25T07:23:31.116Z,98606.31
2023-04-25T07:25:59.621Z,98613.41
2023-04-25T07:28:27.482Z,98609.34
2023-04-25T07:30:55.288Z,98615.84
2023-04-25T07:33:22.723Z,98610.19
2023-04-25T07:35:50.262Z,98613.72
2023-04-25T07:38:18.230Z,98613.72
2023-04-25T07:40:46.368Z,98612.38
2023-04-25T07:43:17.490Z,98624.09
2023-04-25T07:45:46.163Z,98613.78
2023-04-25T07:48:19.571Z,98617.31
2023-04-25T07:50:47.280Z,98621.41
2023-04-25T07:53:15.516Z,98620.38
2023-04-25T07:55:43.501Z,98616.81
2023-04-25T07:58:12.669Z,98607.56
2023-04-25T08:00:40.862Z,98610.03
2023-04-25T08:03:11.218Z,98611.69
2023-04-25T08:05:39.349Z,98621.50
2023-04-25T08:08:07.708Z,98608.72
2023-04-25T08:10:35.746Z,98623.16
2023-04-25T08:13:03.566Z,98623.16
2023-04-25T08:15:31.555Z,98622.06
2023-04-25T08:18:00.590Z,98628.31
2023-04-25T08:20:28.130Z,98624.53
2023-04-25T08:22:56.045Z,98628.31
2023-04-25T08:25:24.344Z,98625.59
2023-04-25T08:27:51.774Z,98616.63
2023-04-25T08:30:21.919Z,98629.41
2023-04-25T08:32:50.961Z,98619.34
2023-04-25T08:35:21.548Z,98628.69
2023-04-25T08:37:50.219Z,98633.50
2023-04-25T08:40:17.985Z,98641.94
2023-04-25T08:42:45.637Z,98641.38
2023-04-25T08:45:14.467Z,98638.66
2023-04-25T08:47:42.821Z,98637.25
2023-04-25T08:50:10.461Z,98639.16
2023-04-25T08:52:41.016Z,98643.53
2023-04-25T08:55:09.455Z,98645.41
2023-04-25T08:57:36.946Z,98650.88
2023-04-25T09:00:05.254Z,98653.59
2023-04-25T09:02:34.575Z,98658.22
2023-04-25T09:05:05.228Z,98658.22
2023-04-25T09:07:32.725Z,98656.56
2023-04-25T09:10:02.868Z,98656.56
2023-04-25T09:12:31.687Z,98660.37
2023-04-25T09:15:20.836Z,98654.94
2023-04-25T09:17:59.376Z,98661.19
2023-04-25T09:20:27.337Z,98648.62
2023-04-25T09:23:05.016Z,98644.28
2023-04-25T09:25:37.768Z,98640.75
2023-04-25T09:28:06.393Z,98644.53
2023-04-25T09:30:34.927Z,98639.09
2023-04-25T09:33:12.288Z,98643.72
2023-04-25T09:35:46.554Z,98637.19
2023-04-25T09:38:15.037Z,98639.09
2023-04-25T09:40:47.449Z,98643.72
2023-04-25T09:43:25.536Z,98627.41
2023-04-25T09:45:55.738Z,98638.59
2023-04-25T09:48:26.083Z,98634.78
2023-04-25T09:51:16.163Z,98643.78
2023-04-25T09:53:45.158Z,98639.72
2023-04-25T09:56:13.967Z,98646.25
2023-04-25T09:58:42.030Z,98653.31
2023-04-25T10:01:11.170Z,98643.53
2023-04-25T10:03:42.065Z,98653.31
2023-04-25T10:06:20.350Z,98643.53
2023-04-25T10:08:51.800Z,98639.72
2023-04-25T10:11:19.267Z,98649.78
2023-04-25T10:13:46.720Z,98646.81
2023-04-25T10:16:14.483Z,98647.88
2023-04-25T10:18:41.971Z,98653.31
2023-04-25T10:21:09.351Z,98645.75
2023-04-25T10:23:37.024Z,98642.44
2023-04-25T10:26:04.474Z,98645.75
2023-04-25T10:28:34.378Z,98652.28
2023-04-25T10:31:03.976Z,98649.53
2023-04-25T10:33:36.012Z,98642.44
2023-04-25T10:36:19.377Z,98650.38
2023-04-25T10:38:46.888Z,98644.09
2023-04-25T10:41:14.659Z,98647.88
2023-04-25T10:43:43.556Z,98650.59
2023-04-25T10:46:24.499Z,98640.78
2023-04-25T10:48:55.658Z,98646.25
2023-04-25T10:51:24.478Z,98643.53
2023-04-25T10:54:05.673Z,98657.38
2023-04-25T10:56:42.937Z,98657.94
2023-04-25T10:59:15.721Z,98656.56
2023-04-25T11:01:52.790Z,98661.19
2023-04-25T11:04:30.805Z,98656.56
2023-04-25T11:07:08.268Z,98660.13
2023-04-25T11:09:37.075Z,98653.25
2023-04-25T11:12:04.811Z,98664.16
2023-04-25T11:14:32.764Z,98646.19
2023-04-25T11:17:01.160Z,98658.97
2023-04-25T11:19:29.245Z,98658.72
2023-04-25T11:22:01.007Z,98656.25
2023-04-25T11:24:32.547Z,98662.78
2023-04-25T11:27:00.335Z,98661.94
2023-04-25T11:29:28.035Z,98665.72
2023-04-25T11:31:58.970Z,98666.56
2023-04-25T11:34:27.070Z,98673.88
2023-04-25T11:36:54.600Z,98679.34
2023-04-25T11:39:22.430Z,98683.13
2023-04-25T11:41:49.913Z,98676.06
2023-04-25T11:44:17.807Z,98666.25
2023-04-25T11:46:45.704Z,98672.50
2023-04-25T11:49:13.660Z,98666.25
2023-04-25T11:51:44.538Z,98668.97
2023-04-25T11:54:12.822Z,98692.66
2023-04-25T11:56:44.162Z,98698.91
2023-04-25T11:59:12.697Z,98697.28
2023-04-25T12:01:41.756Z,98699.13
2023-04-25T12:04:23.233Z,98699.13
2023-04-25T12:06:54.953Z,98700.00
2023-04-25T12:09:29.679Z,98704.59
2023-04-25T12:11:58.996Z,98700.00
2023-04-25T12:14:28.279Z,98697.50
2023-04-25T12:16:58.276Z,98692.66
2023-04-25T12:19:25.807Z,98697.28
2023-04-25T12:21:58.403Z,98686.38
2023-04-25T12:24:28.453Z,98687.19
2023-04-25T12:27:03.905Z,98696.19
2023-04-25T12:29:42.133Z,98693.47
2023-04-25T12:32:16.396Z,98695.38
2023-04-25T12:34:44.005Z,98675.50
2023-04-25T12:37:11.606Z,98689.09
2023-04-25T12:39:39.331Z,98681.75
2023-04-25T12:42:09.645Z,98681.75
2023-04-25T12:44:37.470Z,98681.75
2023-04-25T12:47:05.626Z,98673.81
2023-04-25T12:49:33.087Z,98663.75
2023-04-25T12:52:00.508Z,98665.66
2023-04-25T12:54:28.251Z,98657.50
2023-04-25T12:56:56.424Z,98658.31
2023-04-25T12:59:24.170Z,98648.28
2023-04-25T13:01:51.914Z,98658.31
2023-04-25T13:04:21.280Z,98658.31
2023-04-25T13:06:48.759Z,98653.72
2023-04-25T13:09:16.680Z,98660.53
2023-04-25T13:11:44.512Z,98660.00
2023-04-25T13:14:11.951Z,98662.94
2023-04-25T13:16:39.733Z,98652.06
2023-04-25T13:19:08.876Z,98659.16
2023-04-25T13:21:36.668Z,98663.53
2023-04-25T13:24:04.795Z,98660.81
2023-04-25T13:26:32.265Z,98649.91
2023-04-25T13:29:01.458Z,98652.87
2023-04-25T13:31:29.156Z,98652.06
2023-04-25T13:33:56.610Z,98647.44
2023-04-25T13:36:24.041Z,98646.63
2023-04-25T13:38:51.969Z,98655.84
2023-04-25T13:41:19.903Z,98653.13
2023-04-25T13:43:48.726Z,98649.59
2023-04-25T13:46:35.367Z,98654.22
2023-04-25T13:49:12.158Z,98644.16
2023-04-25T13:51:40.768Z,98646.06
2023-04-25T13:54:08.578Z,98644.97
2023-04-25T13:56:36.283Z,98639.53
2023-04-25T13:59:04.151Z,98644.97
2023-04-25T14:01:35.120Z,98658.59
2023-04-25T14:04:05.026Z,98647.97
2023-04-25T14:06:33.181Z,98654.78
2023-04-25T14:09:05.151Z,98656.44
2023-04-25T14:11:32.860Z,98655.38
2023-04-25T14:14:00.402Z,98648.03
2023-04-25T14:16:28.341Z,98653.47
2023-04-25T14:18:56.509Z,98648.84
2023-04-25T14:21:23.941Z,98652.37
2023-04-25T14:23:51.561Z,98655.91
2023-04-25T14:26:19.796Z,98654.03
2023-04-25T14:28:47.258Z,98655.09
2023-04-25T14:31:14.692Z,98654.03
2023-04-25T14:33:43.800Z,98650.47
2023-04-25T14:36:11.585Z,98651.31
2023-04-25T14:38:39.018Z,98649.41
2023-04-25T14:41:06.890Z,98649.41
2023-04-25T14:43:34.314Z,98647.53
2023-04-25T14:46:02.669Z,98646.69
2023-04-25T14:48:30.761Z,98651.06
2023-04-25T14:50:58.350Z,98652.97
2023-04-25T14:53:25.840Z,98652.13
2023-04-25T14:55:53.521Z,98647.53
2023-04-25T14:58:21.056Z,98648.34
2023-04-25T15:00:48.520Z,98647.25
2023-04-25T15:03:17.708Z,98651.06
2023-04-25T15:05:45.454Z,98647.25
2023-04-25T15:08:13.155Z,98657.06
2023-04-25T15:10:40.971Z,98660.59
2023-04-25T15:13:11.471Z,98662.25
2023-04-25T15:15:38.997Z,98652.44
2023-04-25T15:18:06.828Z,98654.09
2023-04-25T15:20:34.301Z,98652.22
2023-04-25T15:23:04.394Z,98659.53
2023-04-25T15:25:32.121Z,98655.16
2023-04-25T15:28:00.989Z,98655.44
2023-04-25T15:30:28.418Z,98659.53
2023-04-25T15:32:56.369Z,98668.53
2023-04-25T15:35:23.827Z,98665.81
2023-04-25T15:37:52.250Z,98668.53
2023-04-25T15:40:20.148Z,98670.41
2023-04-25T15:42:51.392Z,98684.03
2023-04-25T15:45:20.493Z,98681.56
2023-04-25T15:47:48.454Z,98679.91
2023-04-25T15:50:16.285Z,98694.91
2023-04-25T15:52:43.793Z,98692.19
2023-04-25T15:55:12.937Z,98684.28
2023-04-25T15:57:44.079Z,98681.56
2023-04-25T16:00:17.087Z,98685.69
2023-04-25T16:02:45.981Z,98676.13
2023-04-25T16:05:14.644Z,98678.84
2023-04-25T16:07:43.405Z,98674.47
2023-04-25T16:10:11.523Z,98672.56
2023-04-25T16:12:39.657Z,98673.66
2023-04-25T16:15:07.786Z,98688.09
2023-04-25T16:17:35.650Z,98678.84
2023-04-25T16:20:09.534Z,98678.56
2023-04-25T16:22:40.802Z,98681.56
2023-04-25T16:25:08.904Z,98678.84
2023-04-25T16:27:38.852Z,98674.47
2023-04-25T16:30:10.505Z,98662.78
2023-04-25T16:32:38.503Z,98666.31
2023-04-25T16:35:06.336Z,98670.13
2023-04-25T16:37:33.802Z,98669.53
2023-04-25T16:40:01.478Z,98665.16
2023-04-25T16:42:30.516Z,98675.78
2023-04-25T16:44:58.219Z,98675.56
2023-04-25T16:47:26.111Z,98671.16
2023-04-25T16:49:53.735Z,98673.88
2023-04-25T16:52:23.680Z,98669.28
2023-04-25T16:54:51.892Z,98672.03
2023-04-25T16:57:21.117Z,98674.47
2023-04-25T16:59:50.270Z,98674.47
2023-04-25T17:02:19.579Z,98675.31
2023-04-25T17:04:47.569Z,98681.56
2023-04-25T17:07:16.742Z,98685.94
2023-04-25T17:09:44.379Z,98689.72
2023-04-25T17:12:11.975Z,98694.09
2023-04-25T17:14:40.039Z,98697.91
2023-04-25T17:17:07.884Z,98694.91
2023-04-25T17:19:35.524Z,98697.91
2023-04-25T17:22:03.723Z,98698.47
2023-04-25T17:24:31.503Z,98702.03
2023-04-25T17:27:00.195Z,98703.94
2023-04-25T17:29:31.171Z,98710.19
2023-04-25T17:32:00.303Z,98718.91
2023-04-25T17:34:27.925Z,98711.81
2023-04-25T17:36:55.523Z,98717.00
2023-04-25T17:39:23.767Z,98718.91
2023-04-25T17:41:51.985Z,98725.19
2023-04-25T17:44:20.463Z,98724.09
2023-04-25T17:46:48.342Z,98726.81
2023-04-25T17:49:16.184Z,98728.22
2023-04-25T17:51:44.009Z,98733.94
2023-04-25T17:54:12.201Z,98727.41
2023-04-25T17:56:40.944Z,98730.13
2023-04-25T17:59:08.831Z,98740.19
2023-04-25T18:01:37.347Z,98743.75
2023-04-25T18:04:06.835Z,98751.09
2023-04-25T18:06:34.762Z,98750.81
2023-04-25T18:09:02.542Z,98756.25
2023-04-25T18:11:31.319Z,98754.38
2023-04-25T18:13:59.574Z,98765.03
2023-04-25T18:16:29.561Z,98754.94
2023-04-25T18:19:05.656Z,98767.47
2023-04-25T18:21:37.643Z,98772.94
2023-04-25T18:24:09.044Z,98777.03
2023-04-25T18:26:37.532Z,98773.75
2023-04-25T18:29:08.037Z,98774.84
2023-04-25T18:31:36.355Z,98777.28
2023-04-25T18:34:04.967Z,98784.78
2023-04-25T18:36:32.922Z,98783.06
2023-04-25T18:39:11.656Z,98781.66
2023-04-25T18:41:57.290Z,98787.09
2023-04-25T18:44:28.011Z,98791.50
2023-04-25T18:46:56.360Z,98791.97
2023-04-25T18:49:24.397Z,98794.44
2023-04-25T18:51:52.537Z,98798.25
2023-04-25T18:54:20.393Z,98794.72
2023-04-25T18:56:48.543Z,98799.66
2023-04-25T18:59:17.755Z,98801.53
2023-04-25T19:01:47.549Z,98802.38
2023-04-25T19:04:16.088Z,98804.03
2023-04-25T19:06:47.517Z,98808.66
2023-04-25T19:09:15.806Z,98813.00
2023-04-25T19:11:43.793Z,98814.66
2023-04-25T19:14:13.676Z,98807.31
2023-04-25T19:16:42.040Z,98816.56
2023-04-25T19:19:10.792Z,98814.66
2023-04-25T19:21:40.530Z,98815.47
2023-04-25T19:24:09.376Z,98813.00
2023-04-25T19:26:37.972Z,98810.56
2023-04-25T19:29:12.279Z,98808.06
2023-04-25T19:31:41.258Z,98804.50
2023-04-25T19:34:09.840Z,98806.69
2023-04-25T19:36:39.058Z,98809.12
2023-04-25T19:39:07.788Z,98808.59
2023-04-25T19:41:37.530Z,98812.13
2023-04-25T19:44:09.177Z,98819.47
2023-04-25T19:46:40.392Z,98819.47
2023-04-25T19:49:08.930Z,98814.84
2023-04-25T19:51:37.706Z,98823.25
2023-04-25T19:54:05.909Z,98818.88
2023-04-25T19:56:34.693Z,98821.59
2023-04-25T19:59:02.465Z,98823.25
2023-04-25T20:01:30.724Z,98818.88
2023-04-25T20:04:00.070Z,98810.72
2023-04-25T20:06:29.144Z,98807.16
2023-04-25T20:08:57.082Z,98810.72
2023-04-25T20:11:28.950Z,98809.06
2023-04-25T20:13:56.691Z,98808.25
2023-04-25T20:16:26.492Z,98816.16
2023-04-25T20:18:54.811Z,98815.34
2023-04-25T20:21:22.852Z,98818.47
2023-04-25T20:23:50.743Z,98817.78
2023-04-25T20:26:18.612Z,98829.19
2023-04-25T20:28:46.281Z,98822.09
2023-04-25T20:31:14.186Z,98832.97
2023-04-25T20:33:43.927Z,98839.50
2023-04-25T20:36:11.488Z,98843.03
2023-04-25T20:38:39.521Z,98846.59
2023-04-25T20:41:07.440Z,98844.94
2023-04-25T20:43:35.009Z,98847.09
2023-04-25T20:46:02.653Z,98844.38
2023-04-25T20:48:30.360Z,98851.47
2023-04-25T20:51:00.208Z,98848.75
2023-04-25T20:53:27.735Z,98851.47
2023-04-25T20:55:55.359Z,98849.81
2023-04-25T20:58:22.884Z,98854.44
2023-04-25T21:00:50.771Z,98866.16
2023-04-25T21:03:18.538Z,98867.25
2023-04-25T21:05:46.765Z,98877.28
2023-04-25T21:08:14.324Z,98871.81
2023-04-25T21:10:42.158Z,98874.56
2023-04-25T21:13:09.649Z,98880.25
2023-04-25T21:15:37.095Z,98880.00
2023-04-25T21:18:04.914Z,98877.53
2023-04-25T21:20:32.888Z,98881.34
2023-04-25T21:23:00.360Z,98891.13
2023-04-25T21:25:31.190Z,98891.41
2023-04-25T21:27:59.057Z,98894.34
2023-04-25T21:30:26.678Z,98890.56
2023-04-25T21:32:54.519Z,98890.81
2023-04-25T21:35:22.414Z,98895.44
2023-04-25T21:37:50.980Z,98903.59
2023-04-25T21:40:18.918Z,98904.41
2023-04-25T21:42:49.983Z,98910.94
2023-04-25T21:45:17.445Z,98912.84
2023-04-25T21:47:46.668Z,98917.78
2023-04-25T21:50:14.733Z,98917.19
2023-04-25T21:52:42.216Z,98916.13
2023-04-25T21:55:10.709Z,98914.47
2023-04-25T21:57:38.073Z,98913.41
2023-04-25T22:00:19.852Z,98919.69
2023-04-25T22:02:48.487Z,98927.00
2023-04-25T22:05:16.795Z,98929.72
2023-04-25T22:07:44.158Z,98928.09
2023-04-25T22:10:11.838Z,98935.16
2023-04-25T22:12:39.888Z,98937.06
2023-04-25T22:15:08.994Z,98941.69
2023-04-25T22:17:36.957Z,98939.22
2023-04-25T22:20:10.153Z,98944.19
2023-04-25T22:22:37.866Z,98941.69
2023-04-25T22:25:07.256Z,98937.91
2023-04-25T22:27:34.907Z,98942.50
2023-04-25T22:30:04.732Z,98949.03
2023-04-25T22:32:32.816Z,98950.69
2023-04-25T22:35:00.248Z,98944.41
2023-04-25T22:37:28.835Z,98951.75
2023-04-25T22:39:56.410Z,98943.59
2023-04-25T22:42:24.301Z,98953.66
2023-04-25T22:44:53.025Z,98941.94
2023-04-25T22:47:22.923Z,98949.28
2023-04-25T22:49:51.629Z,98950.38
2023-04-25T22:52:19.335Z,98954.72
2023-04-25T22:54:46.783Z,98947.66
2023-04-25T22:57:14.255Z,98943.25
2023-04-25T22:59:41.993Z,98942.44
2023-04-25T23:02:09.442Z,98956.84
2023-04-25T23:04:37.816Z,98956.03
2023-04-25T23:07:05.573Z,98952.25
2023-04-25T23:09:33.112Z,98956.03
2023-04-25T23:12:00.463Z,98958.75
2023-04-25T23:14:28.674Z,98962.56
2023-04-25T23:16:56.230Z,98959.00
2023-04-25T23:19:23.665Z,98965.28
2023-04-25T23:21:51.851Z,98961.75
2023-04-25T23:24:19.578Z,98969.91
2023-04-25T23:26:47.018Z,98964.47
2023-04-25T23:29:14.717Z,98970.97
2023-04-25T23:31:42.202Z,98971.81
2023-04-25T23:34:09.611Z,98972.06
2023-04-25T23:36:37.397Z,98977.50
2023-04-25T23:39:05.603Z,98978.31
2023-04-25T23:41:33.489Z,98977.50
2023-04-25T23:44:01.230Z,98984.59
2023-04-25T23:46:28.995Z,98970.38
2023-04-25T23:48:56.458Z,98971.19
2023-04-25T23:51:25.223Z,98978.53
2023-04-25T23:53:52.564Z,98984.81
2023-04-25T23:56:19.943Z,98980.44
2023-04-25T23:58:47.812Z,98979.63
